Strathmore, New Jersey
Current Conditions -  °F | °C
As of 3:15 AM on Sunday 26 Oct 2014 (Local Time) from KLDJ Reporting Station
Scattered Clouds Scattered Clouds  
Wind Chill: 64°   Ceiling: Unl
Heat Index: 64°   Visibility: 10mi
Dew Point: 48°   Wind: 5mph
Humidity: 57%   Direction: 260°W
Pressure: 29.57"   Gusts: NA
Location:  40.4118°N, 74.2499°W
Report Text: KLDJ 260715Z AUTO 26004KT 10SM SCT110 18/09 A2957 RMK AO2 T01760091
Loading
Personal Weather Stations






























Interactive Weather Map New forecast layout! Learn more

10-Day Weather Forecast

Advertisements
Track Severe Weather on mobile